createdAt,value
2024-05-09T00:02:36.249Z,95605.34
2024-05-09T00:05:26.270Z,95613.84
2024-05-09T00:08:13.273Z,95615.53
2024-05-09T00:10:54.275Z,95618.06
2024-05-09T00:13:48.227Z,95623.19
2024-05-09T00:16:35.186Z,95620.66
2024-05-09T00:19:08.396Z,95616.41
2024-05-09T00:21:55.181Z,95613.00
2024-05-09T00:24:28.300Z,95617.25
2024-05-09T00:27:22.192Z,95623.16
2024-05-09T00:30:24.209Z,95618.09
2024-05-09T00:33:18.384Z,95612.13
2024-05-09T00:35:52.285Z,95617.22
2024-05-09T00:38:39.182Z,95616.34
2024-05-09T00:41:12.322Z,95614.69
2024-05-09T00:43:59.243Z,95616.38
2024-05-09T00:46:32.503Z,95622.31
2024-05-09T00:49:19.398Z,95616.31
2024-05-09T00:51:53.290Z,95610.41
2024-05-09T00:54:40.212Z,95615.44
2024-05-09T00:57:20.192Z,95610.38
2024-05-09T01:00:22.650Z,95610.34
2024-05-09T01:03:17.434Z,95605.28
2024-05-09T01:05:51.408Z,95606.13
2024-05-09T01:08:38.321Z,95599.34
2024-05-09T01:11:12.434Z,95606.13
2024-05-09T01:13:59.252Z,95604.44
2024-05-09T01:16:32.311Z,95596.81
2024-05-09T01:19:29.354Z,95601.91
2024-05-09T01:22:04.621Z,95607.00
2024-05-09T01:24:51.327Z,95602.78
2024-05-09T01:27:25.375Z,95606.97
2024-05-09T01:30:17.216Z,95601.03
2024-05-09T01:32:54.584Z,95602.72
2024-05-09T01:35:42.544Z,95598.47
2024-05-09T01:38:19.964Z,95602.69
2024-05-09T01:41:07.296Z,95601.84
2024-05-09T01:43:47.246Z,95608.63
2024-05-09T01:46:41.230Z,95611.16
2024-05-09T01:49:28.325Z,95618.78
2024-05-09T01:52:02.331Z,95616.22
2024-05-09T01:54:49.243Z,95609.38
2024-05-09T01:57:22.406Z,95613.59
2024-05-09T02:00:10.563Z,95620.34
2024-05-09T02:02:44.509Z,95617.75
2024-05-09T02:05:31.332Z,95617.75
2024-05-09T02:08:04.420Z,95617.72
2024-05-09T02:10:51.511Z,95610.06
2024-05-09T02:13:25.361Z,95606.66
2024-05-09T02:16:17.221Z,95606.63
2024-05-09T02:18:50.520Z,95604.91
2024-05-09T02:21:41.223Z,95601.44
2024-05-09T02:24:14.336Z,95597.16
2024-05-09T02:27:08.239Z,95596.25
2024-05-09T02:29:55.255Z,95597.88
2024-05-09T02:32:28.522Z,95597.00
2024-05-09T02:35:15.250Z,95597.00
2024-05-09T02:37:48.438Z,95599.53
2024-05-09T02:40:38.024Z,95594.41
2024-05-09T02:43:14.369Z,95602.91
2024-05-09T02:46:01.256Z,95602.06
2024-05-09T02:48:41.473Z,95603.75
2024-05-09T02:51:21.295Z,95606.25
2024-05-09T02:54:01.374Z,95602.88
2024-05-09T02:56:41.347Z,95601.19
2024-05-09T02:59:21.538Z,95598.63
2024-05-09T03:02:02.307Z,95599.47
2024-05-09T03:04:42.368Z,95599.44
2024-05-09T03:07:22.270Z,95607.94
2024-05-09T03:10:02.691Z,95609.56
2024-05-09T03:12:43.285Z,95604.47
2024-05-09T03:15:23.349Z,95606.19
2024-05-09T03:18:06.742Z,95612.13
2024-05-09T03:20:54.332Z,95615.50
2024-05-09T03:23:27.663Z,95623.91
2024-05-09T03:26:14.304Z,95617.13
2024-05-09T03:29:08.306Z,95619.66
2024-05-09T03:31:55.341Z,95619.59
2024-05-09T03:34:28.371Z,95618.72
2024-05-09T03:37:15.281Z,95623.75
2024-05-09T03:39:48.351Z,95622.84
2024-05-09T03:42:35.264Z,95620.31
2024-05-09T03:45:08.377Z,95621.97
2024-05-09T03:47:55.590Z,95614.38
2024-05-09T03:50:33.960Z,95616.94
2024-05-09T03:53:22.306Z,95622.03
2024-05-09T03:56:03.310Z,95618.72
2024-05-09T03:58:57.327Z,95625.53
2024-05-09T04:01:44.458Z,95629.78
2024-05-09T04:04:18.432Z,95625.56
2024-05-09T04:07:05.304Z,95634.06
2024-05-09T04:09:38.379Z,95633.19
2024-05-09T04:12:25.341Z,95629.84
2024-05-09T04:14:58.396Z,95624.78
2024-05-09T04:17:45.402Z,95628.22
2024-05-09T04:20:29.193Z,95627.41
2024-05-09T04:23:24.465Z,95627.44
2024-05-09T04:25:58.416Z,95621.59
2024-05-09T04:28:45.296Z,95631.81
2024-05-09T04:31:18.417Z,95634.44
2024-05-09T04:34:05.698Z,95637.00
2024-05-09T04:36:46.295Z,95633.69
2024-05-09T04:39:33.266Z,95637.13
2024-05-09T04:42:13.306Z,95634.69
2024-05-09T04:45:07.294Z,95635.63
2024-05-09T04:47:54.457Z,95649.22
2024-05-09T04:50:35.827Z,95643.34
2024-05-09T04:53:25.317Z,95645.16
2024-05-09T04:55:58.479Z,95643.53
2024-05-09T04:58:45.313Z,95650.44
2024-05-09T05:01:18.557Z,95644.50
2024-05-09T05:04:05.360Z,95657.28
2024-05-09T05:06:38.408Z,95659.81
2024-05-09T05:09:25.302Z,95656.44
2024-05-09T05:11:59.860Z,95650.41
2024-05-09T05:14:47.302Z,95652.84
2024-05-09T05:17:20.610Z,95649.31
2024-05-09T05:20:08.635Z,95651.69
2024-05-09T05:22:46.021Z,95651.50
2024-05-09T05:25:33.297Z,95647.84
2024-05-09T05:28:06.415Z,95652.75
2024-05-09T05:30:54.296Z,95640.47
2024-05-09T05:33:34.356Z,95640.16
2024-05-09T05:36:28.318Z,95649.09
2024-05-09T05:39:15.319Z,95648.63
2024-05-09T05:41:48.420Z,95651.69
2024-05-09T05:44:35.345Z,95643.53
2024-05-09T05:47:12.529Z,95639.53
2024-05-09T05:49:59.375Z,95644.03
2024-05-09T05:52:39.417Z,95643.41
2024-05-09T05:55:19.307Z,95643.53
2024-05-09T05:57:59.739Z,95642.06
2024-05-09T06:00:40.679Z,95656.88
2024-05-09T06:03:21.472Z,95652.06
2024-05-09T06:06:01.388Z,95651.34
2024-05-09T06:08:41.446Z,95658.31
2024-05-09T06:11:21.400Z,95646.53
2024-05-09T06:14:05.518Z,95647.47
2024-05-09T06:16:48.361Z,95654.56
2024-05-09T06:19:28.570Z,95658.19
2024-05-09T06:22:03.167Z,95657.56
2024-05-09T06:24:50.351Z,95662.13
2024-05-09T06:27:23.435Z,95659.88
2024-05-09T06:30:21.077Z,95661.66
2024-05-09T06:33:02.548Z,95665.06
2024-05-09T06:35:50.500Z,95670.72
2024-05-09T06:38:23.495Z,95663.94
2024-05-09T06:41:12.421Z,95669.97
2024-05-09T06:43:45.467Z,95673.47
2024-05-09T06:46:33.357Z,95674.44
2024-05-09T06:49:08.588Z,95674.94
2024-05-09T06:51:55.365Z,95663.84
2024-05-09T06:54:38.513Z,95673.50
2024-05-09T06:57:18.390Z,95676.22
2024-05-09T07:00:18.606Z,95680.63
2024-05-09T07:03:16.910Z,95683.28
2024-05-09T07:05:59.470Z,95686.59
2024-05-09T07:08:53.379Z,95686.47
2024-05-09T07:11:40.613Z,95687.91
2024-05-09T07:14:14.654Z,95683.50
2024-05-09T07:17:01.492Z,95679.44
2024-05-09T07:19:35.563Z,95678.59
2024-05-09T07:22:22.443Z,95675.50
2024-05-09T07:24:55.495Z,95674.47
2024-05-09T07:27:57.372Z,95679.56
2024-05-09T07:30:51.391Z,95677.75
2024-05-09T07:33:45.406Z,95674.47
2024-05-09T07:36:32.392Z,95677.88
2024-05-09T07:39:06.124Z,95689.00
2024-05-09T07:41:53.382Z,95666.91
2024-05-09T07:44:26.560Z,95671.94
2024-05-09T07:48:28.048Z,95668.50
2024-05-09T07:52:22.644Z,95675.84
2024-05-09T07:53:37.289Z,95668.94
2024-05-09T07:56:06.786Z,95675.50
2024-05-09T07:58:53.779Z,95684.22
2024-05-09T08:01:41.449Z,95671.69
2024-05-09T08:04:17.837Z,95672.94
2024-05-09T08:07:04.497Z,95665.81
2024-05-09T08:09:46.537Z,95670.03
2024-05-09T08:12:26.564Z,95671.16
2024-05-09T08:15:06.432Z,95666.25
2024-05-09T08:17:53.491Z,95669.44
2024-05-09T08:20:33.672Z,95666.09
2024-05-09T08:23:22.442Z,95663.16
2024-05-09T08:25:55.824Z,95666.94
2024-05-09T08:28:42.476Z,95671.50
2024-05-09T08:31:15.890Z,95671.09
2024-05-09T08:34:03.600Z,95670.72
2024-05-09T08:36:36.866Z,95670.16
2024-05-09T08:39:23.410Z,95670.91
2024-05-09T08:41:56.861Z,95668.91
2024-05-09T08:44:43.451Z,95668.38
2024-05-09T08:47:17.215Z,95671.94
2024-05-09T08:50:08.596Z,95671.03
2024-05-09T08:52:51.432Z,95660.56
2024-05-09T08:55:41.969Z,95665.88
2024-05-09T08:58:20.910Z,95668.63
2024-05-09T09:01:07.540Z,95672.63
2024-05-09T09:03:48.688Z,95670.97
2024-05-09T09:06:28.562Z,95662.84
2024-05-09T09:09:10.475Z,95670.97
2024-05-09T09:11:57.491Z,95666.03
2024-05-09T09:14:37.459Z,95662.88
2024-05-09T09:17:23.681Z,95664.69
2024-05-09T09:20:03.538Z,95660.69
2024-05-09T09:22:44.540Z,95661.06
2024-05-09T09:25:24.520Z,95659.69
2024-05-09T09:28:19.495Z,95664.31
2024-05-09T09:31:10.459Z,95660.50
2024-05-09T09:33:57.782Z,95658.97
2024-05-09T09:36:46.548Z,95659.19
2024-05-09T09:39:29.665Z,95656.75
2024-05-09T09:42:11.525Z,95662.50
2024-05-09T09:45:05.001Z,95670.09
2024-05-09T09:47:48.079Z,95664.72
2024-05-09T09:50:35.669Z,95656.44
2024-05-09T09:53:10.430Z,95664.09
2024-05-09T09:55:57.473Z,95657.28
2024-05-09T09:58:34.781Z,95646.75
2024-05-09T10:01:21.610Z,95647.81
2024-05-09T10:03:55.077Z,95655.16
2024-05-09T10:06:43.525Z,95659.66
2024-05-09T10:09:18.309Z,95655.44
2024-05-09T10:14:49.256Z,95671.97
2024-05-09T10:17:36.674Z,95670.41
2024-05-09T10:20:18.269Z,95660.34
2024-05-09T10:23:08.489Z,95666.03
2024-05-09T10:25:41.869Z,95653.91
2024-05-09T10:28:29.538Z,95651.06
2024-05-09T10:31:10.001Z,95647.28
2024-05-09T10:34:01.760Z,95646.53
2024-05-09T10:36:42.061Z,95655.97
2024-05-09T10:39:29.632Z,95655.78
2024-05-09T10:42:04.053Z,95650.34
2024-05-09T10:44:53.580Z,95646.16
2024-05-09T10:47:30.077Z,95660.91
2024-05-09T10:50:25.068Z,95660.22
2024-05-09T10:53:02.667Z,95648.09
2024-05-09T10:55:49.534Z,95640.34
2024-05-09T10:58:23.870Z,95638.38
2024-05-09T11:01:11.685Z,95632.41
2024-05-09T11:03:55.680Z,95633.34
2024-05-09T11:06:38.285Z,95637.53
2024-05-09T11:09:18.723Z,95640.44
2024-05-09T11:11:58.690Z,95661.13
2024-05-09T11:14:38.539Z,95649.19
2024-05-09T11:17:18.682Z,95643.22
2024-05-09T11:19:58.649Z,95633.19
2024-05-09T11:22:39.682Z,95637.38
2024-05-09T11:25:19.831Z,95635.50
2024-05-09T11:28:14.722Z,95626.06
2024-05-09T11:31:14.672Z,95628.31
2024-05-09T11:33:57.709Z,95628.13
2024-05-09T11:36:51.647Z,95623.66
2024-05-09T11:39:38.585Z,95612.41
2024-05-09T11:42:11.702Z,95613.56
2024-05-09T11:44:58.549Z,95611.97
2024-05-09T11:47:31.784Z,95610.97
2024-05-09T11:50:26.897Z,95605.97
2024-05-09T11:53:03.688Z,95623.28
2024-05-09T11:55:50.602Z,95614.97
2024-05-09T11:58:24.745Z,95608.06
2024-05-09T12:01:14.680Z,95623.75
2024-05-09T12:03:49.610Z,95622.16
2024-05-09T12:06:36.560Z,95622.38
2024-05-09T12:09:09.721Z,95615.81
2024-05-09T12:11:50.671Z,95613.13
2024-05-09T12:14:30.689Z,95600.34
2024-05-09T12:17:12.692Z,95603.25
2024-05-09T12:19:52.983Z,95594.59
2024-05-09T12:22:32.590Z,95613.59
2024-05-09T12:25:19.671Z,95603.31
2024-05-09T12:27:52.708Z,95604.66
2024-05-09T12:30:43.648Z,95597.75
2024-05-09T12:33:26.673Z,95594.88
2024-05-09T12:36:13.599Z,95592.00
2024-05-09T12:38:46.776Z,95594.16
2024-05-09T12:41:33.590Z,95587.63
2024-05-09T12:44:06.861Z,95593.34
2024-05-09T12:46:53.591Z,95576.69
2024-05-09T12:49:28.973Z,95573.53
2024-05-09T12:52:15.613Z,95569.59
2024-05-09T12:54:55.655Z,95575.81
2024-05-09T12:57:42.639Z,95584.81
2024-05-09T13:00:27.108Z,95575.88
2024-05-09T13:03:18.705Z,95576.22
2024-05-09T13:05:52.834Z,95576.53
2024-05-09T13:08:39.605Z,95574.59
2024-05-09T13:11:19.707Z,95567.34
2024-05-09T13:14:13.629Z,95562.84
2024-05-09T13:17:00.686Z,95563.88
2024-05-09T13:19:33.781Z,95558.09
2024-05-09T13:22:20.666Z,95575.59
2024-05-09T13:24:53.760Z,95558.41
2024-05-09T13:27:47.653Z,95564.75
2024-05-09T13:30:42.413Z,95563.19
2024-05-09T13:33:29.790Z,95560.06
2024-05-09T13:36:16.691Z,95560.25
2024-05-09T13:38:56.622Z,95562.00
2024-05-09T13:41:43.695Z,95556.03
2024-05-09T13:44:16.976Z,95546.75
2024-05-09T13:47:03.642Z,95553.59
2024-05-09T13:49:37.115Z,95557.00
2024-05-09T13:52:23.699Z,95558.75
2024-05-09T13:54:57.080Z,95554.56
2024-05-09T13:57:44.716Z,95550.66
2024-05-09T14:00:40.605Z,95563.19
2024-05-09T14:03:35.139Z,95560.94
2024-05-09T14:06:12.834Z,95549.03
2024-05-09T14:09:00.938Z,95556.00
2024-05-09T14:11:34.096Z,95555.38
2024-05-09T14:14:20.639Z,95550.25
2024-05-09T14:16:54.202Z,95547.63
2024-05-09T14:19:41.690Z,95540.69
2024-05-09T14:22:15.190Z,95544.91
2024-05-09T14:25:05.619Z,95542.28
2024-05-09T14:27:59.738Z,95546.66
2024-05-09T14:30:46.730Z,95547.63
2024-05-09T14:33:31.959Z,95540.22
2024-05-09T14:36:25.696Z,95557.34
2024-05-09T14:39:12.666Z,95541.03
2024-05-09T14:41:46.776Z,95545.44
2024-05-09T14:44:33.640Z,95540.88
2024-05-09T14:47:06.793Z,95540.06
2024-05-09T14:49:53.717Z,95532.44
2024-05-09T14:52:26.797Z,95535.16
2024-05-09T14:55:13.794Z,95540.97
2024-05-09T14:57:47.795Z,95540.50
2024-05-09T15:00:36.320Z,95530.53
2024-05-09T15:03:18.304Z,95534.50
2024-05-09T15:05:58.699Z,95534.06
2024-05-09T15:08:45.668Z,95531.84
2024-05-09T15:11:19.053Z,95531.22
2024-05-09T15:14:05.720Z,95529.97
2024-05-09T15:16:39.240Z,95526.69
2024-05-09T15:19:25.801Z,95521.56
2024-05-09T15:21:59.093Z,95525.97
2024-05-09T15:24:45.749Z,95522.72
2024-05-09T15:27:32.709Z,95521.09
2024-05-09T15:30:28.148Z,95521.97
2024-05-09T15:33:05.565Z,95520.31
2024-05-09T15:35:53.688Z,95514.53
2024-05-09T15:38:27.812Z,95519.69
2024-05-09T15:41:14.691Z,95518.91
2024-05-09T15:43:50.288Z,95515.47
2024-05-09T15:46:37.780Z,95526.13
2024-05-09T15:49:17.848Z,95521.97
2024-05-09T15:52:12.045Z,95518.72
2024-05-09T15:54:58.719Z,95515.47
2024-05-09T15:57:33.218Z,95513.00
2024-05-09T16:00:28.533Z,95510.53
2024-05-09T16:03:10.485Z,95508.09
2024-05-09T16:05:58.839Z,95514.09
2024-05-09T16:08:39.744Z,95510.72
2024-05-09T16:11:27.767Z,95509.88
2024-05-09T16:14:07.739Z,95514.31
2024-05-09T16:17:01.797Z,95505.03
2024-05-09T16:19:55.736Z,95501.66
2024-05-09T16:22:42.694Z,95504.47
2024-05-09T16:25:22.719Z,95509.66
2024-05-09T16:28:17.786Z,95505.50
2024-05-09T16:31:05.792Z,95506.50
2024-05-09T16:33:40.980Z,95504.91
2024-05-09T16:36:27.752Z,95513.59
2024-05-09T16:39:00.864Z,95517.09
2024-05-09T16:41:50.723Z,95516.41
2024-05-09T16:44:35.627Z,95511.47
2024-05-09T16:47:18.792Z,95514.31
2024-05-09T16:49:58.889Z,95524.81
2024-05-09T16:52:38.721Z,95519.75
2024-05-09T16:55:19.331Z,95518.16
2024-05-09T16:58:06.991Z,95526.97
2024-05-09T17:00:43.417Z,95522.09
2024-05-09T17:03:24.870Z,95515.44
2024-05-09T17:06:12.771Z,95517.50
2024-05-09T17:08:46.891Z,95515.94
2024-05-09T17:11:33.776Z,95521.28
2024-05-09T17:14:07.379Z,95518.13
2024-05-09T17:16:54.854Z,95521.81
2024-05-09T17:19:28.881Z,95523.81
2024-05-09T17:22:15.953Z,95528.31
2024-05-09T17:24:55.907Z,95526.84
2024-05-09T17:27:49.760Z,95527.16
2024-05-09T17:30:43.900Z,95532.50
2024-05-09T17:33:30.902Z,95533.63
2024-05-09T17:36:05.062Z,95528.72
2024-05-09T17:38:51.743Z,95530.66
2024-05-09T17:41:34.195Z,95534.25
2024-05-09T17:44:27.744Z,95537.09
2024-05-09T17:47:14.821Z,95537.34
2024-05-09T17:49:47.930Z,95545.31
2024-05-09T17:52:34.766Z,95545.53
2024-05-09T17:55:07.910Z,95543.19
2024-05-09T17:57:57.112Z,95546.06
2024-05-09T18:00:40.121Z,95547.09
2024-05-09T18:03:30.027Z,95544.72
2024-05-09T18:06:03.972Z,95549.22
2024-05-09T18:08:50.803Z,95553.66
2024-05-09T18:11:26.936Z,95562.41
2024-05-09T18:14:13.847Z,95553.19
2024-05-09T18:16:56.316Z,95561.91
2024-05-09T18:19:52.237Z,95556.88
2024-05-09T18:22:45.827Z,95562.16
2024-05-09T18:25:32.772Z,95560.59
2024-05-09T18:28:15.087Z,95565.94
2024-05-09T18:31:08.843Z,95568.66
2024-05-09T18:33:58.246Z,95577.41
2024-05-09T18:36:31.952Z,95587.69
2024-05-09T18:39:18.791Z,95579.31
2024-05-09T18:41:51.939Z,95581.09
2024-05-09T18:44:41.482Z,95583.75
2024-05-09T18:47:18.358Z,95583.88
2024-05-09T18:50:14.946Z,95593.34
2024-05-09T18:52:53.873Z,95597.78
2024-05-09T18:55:43.747Z,95604.75
2024-05-09T18:58:27.571Z,95597.13
2024-05-09T19:01:21.870Z,95598.09
2024-05-09T19:04:08.994Z,95600.72
2024-05-09T19:06:42.941Z,95606.75
2024-05-09T19:09:29.781Z,95609.44
2024-05-09T19:12:06.423Z,95612.91
2024-05-09T19:14:53.843Z,95617.22
2024-05-09T19:17:26.966Z,95615.56
2024-05-09T19:20:24.772Z,95621.63
2024-05-09T19:23:03.002Z,95624.34
2024-05-09T19:25:49.809Z,95623.53
2024-05-09T19:28:29.895Z,95622.81
2024-05-09T19:31:23.916Z,95628.00
2024-05-09T19:34:11.853Z,95619.53
2024-05-09T19:36:44.972Z,95623.91
2024-05-09T19:39:31.839Z,95620.53
2024-05-09T19:42:04.896Z,95628.34
2024-05-09T19:44:51.785Z,95625.84
2024-05-09T19:47:25.033Z,95631.00
2024-05-09T19:50:16.305Z,95632.78
2024-05-09T19:52:55.949Z,95631.13
2024-05-09T19:55:42.912Z,95633.75
2024-05-09T19:58:17.043Z,95644.03
2024-05-09T20:01:03.936Z,95641.53
2024-05-09T20:03:44.041Z,95643.31
2024-05-09T20:06:32.848Z,95645.06
2024-05-09T20:09:05.937Z,95645.06
2024-05-09T20:11:52.899Z,95640.84
2024-05-09T20:14:26.965Z,95648.56
2024-05-09T20:17:13.811Z,95650.31
2024-05-09T20:19:50.110Z,95646.13
2024-05-09T20:22:36.829Z,95645.28
2024-05-09T20:28:11.207Z,95641.06
2024-05-09T20:30:57.870Z,95641.94
2024-05-09T20:33:31.062Z,95639.41
2024-05-09T20:36:17.843Z,95639.47
2024-05-09T20:38:57.954Z,95636.06
2024-05-09T20:41:37.835Z,95635.31
2024-05-09T20:44:17.972Z,95635.31
2024-05-09T20:46:57.841Z,95637.09
2024-05-09T20:49:38.020Z,95640.56
2024-05-09T20:52:18.896Z,95641.44
2024-05-09T20:54:58.942Z,95648.28
2024-05-09T20:57:38.923Z,95640.66
2024-05-09T21:00:22.617Z,95638.13
2024-05-09T21:03:12.022Z,95645.84
2024-05-09T21:05:53.929Z,95648.47
2024-05-09T21:08:33.936Z,95640.84
2024-05-09T21:11:14.851Z,95640.84
2024-05-09T21:13:57.012Z,95638.34
2024-05-09T21:16:41.135Z,95641.75
2024-05-09T21:19:20.959Z,95638.38
2024-05-09T21:22:00.845Z,95635.00
2024-05-09T21:24:41.025Z,95637.59
2024-05-09T21:27:20.856Z,95636.78
2024-05-09T21:30:22.293Z,95641.06
2024-05-09T21:33:15.406Z,95647.03
2024-05-09T21:35:49.971Z,95640.25
2024-05-09T21:38:36.871Z,95645.34
2024-05-09T21:41:10.336Z,95647.91
2024-05-09T21:43:56.869Z,95651.34
2024-05-09T21:46:30.154Z,95648.78
2024-05-09T21:49:17.939Z,95648.78
2024-05-09T21:51:50.987Z,95653.88
2024-05-09T21:54:37.898Z,95654.72
2024-05-09T21:57:18.883Z,95656.44
2024-05-09T22:00:08.538Z,95663.22
2024-05-09T22:02:50.899Z,95662.38
2024-05-09T22:05:38.020Z,95661.56
2024-05-09T22:08:24.873Z,95663.25
2024-05-09T22:10:58.272Z,95658.97
2024-05-09T22:13:44.860Z,95655.56
2024-05-09T22:16:18.310Z,95659.81
2024-05-09T22:19:05.187Z,95661.53
2024-05-09T22:21:38.445Z,95658.13
2024-05-09T22:24:24.882Z,95650.47
2024-05-09T22:26:58.199Z,95655.56
2024-05-09T22:29:44.914Z,95647.91
2024-05-09T22:32:38.931Z,95648.78
2024-05-09T22:35:25.880Z,95648.75
2024-05-09T22:38:06.042Z,95651.31
2024-05-09T22:40:49.065Z,95652.16
2024-05-09T22:43:36.894Z,95658.06
2024-05-09T22:46:31.081Z,95655.53
2024-05-09T22:49:17.944Z,95652.13
2024-05-09T22:51:50.995Z,95655.50
2024-05-09T22:54:37.971Z,95655.50
2024-05-09T22:57:11.973Z,95648.69
2024-05-09T22:59:58.886Z,95654.63
2024-05-09T23:02:32.076Z,95654.59
2024-05-09T23:05:19.050Z,95658.81
2024-05-09T23:07:53.022Z,95655.41
2024-05-09T23:10:39.935Z,95655.41
2024-05-09T23:13:13.349Z,95655.41
2024-05-09T23:15:59.942Z,95653.69
2024-05-09T23:18:40.421Z,95651.13
2024-05-09T23:21:20.910Z,95655.34
2024-05-09T23:24:00.997Z,95657.88
2024-05-09T23:26:40.922Z,95657.00
2024-05-09T23:29:34.925Z,95653.59
2024-05-09T23:32:28.966Z,95649.34
2024-05-09T23:35:15.904Z,95656.94
2024-05-09T23:37:56.026Z,95646.75
2024-05-09T23:40:39.610Z,95656.91
2024-05-09T23:43:21.094Z,95656.03
2024-05-09T23:46:01.023Z,95657.72
2024-05-09T23:48:41.399Z,95653.44
2024-05-09T23:51:21.963Z,95650.91
2024-05-09T23:54:02.020Z,95651.72
2024-05-09T23:56:41.917Z,95647.47
2024-05-09T23:59:22.111Z,95649.97
